Terminal Aerodrome Forecast
Issued by NWS

Home | Current Version | Previous Version | Text Only | Print | Product List | Glossary On
Versions: 1 2 3 4 5 6 7 8 9 10 11 12 13 14 15 16 17
893
FTUS46 KEKA 071122
TAFCEC
TAF
KCEC 071122Z 0712/0812 09008KT P6SM SCT250
     FM072000 13008KT P6SM BKN150
     FM080600 12010KT P6SM -SHRA BKN050 OVC100=

USA.gov is the U.S. government's official web portal to all federal, state and local government web resources and services.